Eastmanville, Michigan
Current Conditions -  °F | °C
As of 7:55 PM on Monday 20 Oct 2014 (Local Time) from KMKG Reporting Station
Light Rain Light Rain  
Wind Chill: 50°   Ceiling: 3800
Heat Index: 50°   Visibility: 7mi
Dew Point: 44°   Wind: 14mph
Humidity: 80%   Direction: 340°NNW
Pressure: 29.94"   Gusts: NA
Location:  43.0662°N, 85.9564°W
Report Text: KMKG 202355Z 34012KT 7SM -RA FEW020 BKN038 OVC050 10/07 A2994 RMK AO2 RAB50 SLP142 P0000 60000 T01000067 10156 20100 51031
Loading
Personal Weather Stations






























Interactive Weather Map
Tropical Storm Tracking
New forecast layout! Learn more

10-Day Weather Forecast

Advertisements
Track Severe Weather on mobile